sensor_id;sensor_type;location;lat;lon;timestamp;pressure;altitude;pressure_sealevel;temperature;humidity
33859;BME280;20156;47.486;12.074;2023-07-31T00:00:00;63601.63;;;-144.78;100.00
33859;BME280;20156;47.486;12.074;2023-07-31T00:02:26;63601.63;;;-144.78;100.00
33859;BME280;20156;47.486;12.074;2023-07-31T00:04:51;63601.63;;;-144.78;100.00
33859;BME280;20156;47.486;12.074;2023-07-31T00:07:16;63601.63;;;-144.78;100.00
33859;BME280;20156;47.486;12.074;2023-07-31T00:09:42;63601.63;;;-144.78;100.00
33859;BME280;20156;47.486;12.074;2023-07-31T00:12:07;63601.63;;;-144.78;100.00
33859;BME280;20156;47.486;12.074;2023-07-31T00:14:33;63601.63;;;-144.78;100.00
33859;BME280;20156;47.486;12.074;2023-07-31T00:16:58;63601.63;;;-144.78;100.00
33859;BME280;20156;47.486;12.074;2023-07-31T00:19:24;63601.63;;;-144.78;100.00
33859;BME280;20156;47.486;12.074;2023-07-31T00:21:49;63601.63;;;-144.78;100.00
33859;BME280;20156;47.486;12.074;2023-07-31T00:24:15;63601.63;;;-144.78;100.00
33859;BME280;20156;47.486;12.074;2023-07-31T00:26:40;63601.63;;;-144.78;100.00
33859;BME280;20156;47.486;12.074;2023-07-31T00:29:06;63601.63;;;-144.78;100.00
33859;BME280;20156;47.486;12.074;2023-07-31T00:31:31;63601.63;;;-144.78;100.00
33859;BME280;20156;47.486;12.074;2023-07-31T00:33:56;63601.63;;;-144.78;100.00
33859;BME280;20156;47.486;12.074;2023-07-31T00:36:22;63601.63;;;-144.78;100.00
33859;BME280;20156;47.486;12.074;2023-07-31T00:38:47;63601.63;;;-144.78;100.00
33859;BME280;20156;47.486;12.074;2023-07-31T00:41:13;63601.63;;;-144.78;100.00
33859;BME280;20156;47.486;12.074;2023-07-31T00:43:38;63601.63;;;-144.78;100.00
33859;BME280;20156;47.486;12.074;2023-07-31T00:46:04;63601.63;;;-144.78;100.00
33859;BME280;20156;47.486;12.074;2023-07-31T00:48:30;63601.63;;;-144.78;100.00
33859;BME280;20156;47.486;12.074;2023-07-31T00:50:55;63601.63;;;-144.78;100.00
33859;BME280;20156;47.486;12.074;2023-07-31T00:53:21;63601.63;;;-144.78;100.00
33859;BME280;20156;47.486;12.074;2023-07-31T00:55:46;63601.63;;;-144.78;100.00
33859;BME280;20156;47.486;12.074;2023-07-31T00:58:12;63601.63;;;-144.78;100.00
33859;BME280;20156;47.486;12.074;2023-07-31T01:00:37;63601.63;;;-144.78;100.00
33859;BME280;20156;47.486;12.074;2023-07-31T01:03:02;63601.63;;;-144.78;100.00
33859;BME280;20156;47.486;12.074;2023-07-31T01:08:42;63601.63;;;-144.78;100.00
33859;BME280;20156;47.486;12.074;2023-07-31T01:11:19;63601.63;;;-144.78;100.00
33859;BME280;20156;47.486;12.074;2023-07-31T01:13:45;63601.63;;;-144.78;100.00
33859;BME280;20156;47.486;12.074;2023-07-31T01:16:11;63601.63;;;-144.78;100.00
33859;BME280;20156;47.486;12.074;2023-07-31T01:18:37;63601.63;;;-144.78;100.00
33859;BME280;20156;47.486;12.074;2023-07-31T01:26:38;63601.63;;;-144.78;100.00
33859;BME280;20156;47.486;12.074;2023-07-31T01:29:12;63601.63;;;-144.78;100.00
33859;BME280;20156;47.486;12.074;2023-07-31T01:31:47;63601.63;;;-144.78;100.00
33859;BME280;20156;47.486;12.074;2023-07-31T01:34:16;63601.63;;;-144.78;100.00
33859;BME280;20156;47.486;12.074;2023-07-31T01:36:43;63601.63;;;-144.78;100.00
33859;BME280;20156;47.486;12.074;2023-07-31T01:39:08;63601.63;;;-144.78;100.00
33859;BME280;20156;47.486;12.074;2023-07-31T01:41:33;63601.63;;;-144.78;100.00
33859;BME280;20156;47.486;12.074;2023-07-31T01:43:59;63601.63;;;-144.78;100.00
33859;BME280;20156;47.486;12.074;2023-07-31T01:46:24;63601.63;;;-144.78;100.00
33859;BME280;20156;47.486;12.074;2023-07-31T01:48:50;63601.63;;;-144.78;100.00
33859;BME280;20156;47.486;12.074;2023-07-31T01:51:16;63601.63;;;-144.78;100.00
33859;BME280;20156;47.486;12.074;2023-07-31T01:53:41;63601.63;;;-144.78;100.00
33859;BME280;20156;47.486;12.074;2023-07-31T01:56:06;63601.63;;;-144.78;100.00
33859;BME280;20156;47.486;12.074;2023-07-31T01:58:32;63601.63;;;-144.78;100.00
33859;BME280;20156;47.486;12.074;2023-07-31T02:00:57;63601.63;;;-144.78;100.00
33859;BME280;20156;47.486;12.074;2023-07-31T02:03:23;63601.63;;;-144.78;100.00
33859;BME280;20156;47.486;12.074;2023-07-31T02:05:49;63601.63;;;-144.78;100.00
33859;BME280;20156;47.486;12.074;2023-07-31T02:08:15;63601.63;;;-144.78;100.00
33859;BME280;20156;47.486;12.074;2023-07-31T02:10:41;63601.63;;;-144.78;100.00
33859;BME280;20156;47.486;12.074;2023-07-31T02:13:06;63601.63;;;-144.78;100.00
33859;BME280;20156;47.486;12.074;2023-07-31T02:15:33;63601.63;;;-144.78;100.00
33859;BME280;20156;47.486;12.074;2023-07-31T02:17:58;63601.63;;;-144.78;100.00
33859;BME280;20156;47.486;12.074;2023-07-31T02:20:25;63601.63;;;-144.78;100.00
33859;BME280;20156;47.486;12.074;2023-07-31T02:22:51;63601.63;;;-144.78;100.00
33859;BME280;20156;47.486;12.074;2023-07-31T02:25:16;63601.63;;;-144.78;100.00
33859;BME280;20156;47.486;12.074;2023-07-31T02:27:42;63601.63;;;-144.78;100.00
33859;BME280;20156;47.486;12.074;2023-07-31T02:30:08;63601.63;;;-144.78;100.00
33859;BME280;20156;47.486;12.074;2023-07-31T02:32:33;63601.63;;;-144.78;100.00
33859;BME280;20156;47.486;12.074;2023-07-31T02:34:59;63601.63;;;-144.78;100.00
33859;BME280;20156;47.486;12.074;2023-07-31T02:37:25;63601.63;;;-144.78;100.00
33859;BME280;20156;47.486;12.074;2023-07-31T02:39:50;63601.63;;;-144.78;100.00
33859;BME280;20156;47.486;12.074;2023-07-31T02:42:16;63601.63;;;-144.78;100.00
33859;BME280;20156;47.486;12.074;2023-07-31T02:44:41;63601.63;;;-144.78;100.00
33859;BME280;20156;47.486;12.074;2023-07-31T02:47:07;63601.63;;;-144.78;100.00
33859;BME280;20156;47.486;12.074;2023-07-31T02:49:32;63601.63;;;-144.78;100.00
33859;BME280;20156;47.486;12.074;2023-07-31T02:51:58;63601.63;;;-144.78;100.00
33859;BME280;20156;47.486;12.074;2023-07-31T02:54:23;63601.63;;;-144.78;100.00
33859;BME280;20156;47.486;12.074;2023-07-31T02:56:49;63601.63;;;-144.78;100.00
33859;BME280;20156;47.486;12.074;2023-07-31T02:59:15;63601.63;;;-144.78;100.00
33859;BME280;20156;47.486;12.074;2023-07-31T03:01:40;63601.63;;;-144.78;100.00
33859;BME280;20156;47.486;12.074;2023-07-31T03:04:06;63601.63;;;-144.78;100.00
33859;BME280;20156;47.486;12.074;2023-07-31T03:06:32;63601.63;;;-144.78;100.00
33859;BME280;20156;47.486;12.074;2023-07-31T03:08:57;63601.63;;;-144.78;100.00
33859;BME280;20156;47.486;12.074;2023-07-31T03:11:23;63601.63;;;-144.78;100.00
33859;BME280;20156;47.486;12.074;2023-07-31T03:13:48;63601.63;;;-144.78;100.00
33859;BME280;20156;47.486;12.074;2023-07-31T03:16:13;63601.63;;;-144.78;100.00
33859;BME280;20156;47.486;12.074;2023-07-31T03:18:39;63601.63;;;-144.78;100.00
33859;BME280;20156;47.486;12.074;2023-07-31T03:21:04;63601.63;;;-144.78;100.00
33859;BME280;20156;47.486;12.074;2023-07-31T03:23:30;63601.63;;;-144.78;100.00
33859;BME280;20156;47.486;12.074;2023-07-31T03:26:00;63601.63;;;-144.78;100.00
33859;BME280;20156;47.486;12.074;2023-07-31T03:28:26;63601.63;;;-144.78;100.00
33859;BME280;20156;47.486;12.074;2023-07-31T03:30:52;63601.63;;;-144.78;100.00
33859;BME280;20156;47.486;12.074;2023-07-31T03:33:17;63601.63;;;-144.78;100.00
33859;BME280;20156;47.486;12.074;2023-07-31T03:35:43;63601.63;;;-144.78;100.00
33859;BME280;20156;47.486;12.074;2023-07-31T03:38:08;63601.63;;;-144.78;100.00
33859;BME280;20156;47.486;12.074;2023-07-31T03:40:34;63601.63;;;-144.78;100.00
33859;BME280;20156;47.486;12.074;2023-07-31T03:42:59;63601.63;;;-144.78;100.00
33859;BME280;20156;47.486;12.074;2023-07-31T03:45:24;63601.63;;;-144.78;100.00
33859;BME280;20156;47.486;12.074;2023-07-31T03:47:50;63601.63;;;-144.78;100.00
33859;BME280;20156;47.486;12.074;2023-07-31T03:50:15;63601.63;;;-144.78;100.00
33859;BME280;20156;47.486;12.074;2023-07-31T03:52:41;63601.63;;;-144.78;100.00
33859;BME280;20156;47.486;12.074;2023-07-31T03:55:07;63601.63;;;-144.78;100.00
33859;BME280;20156;47.486;12.074;2023-07-31T03:57:32;63601.63;;;-144.78;100.00
33859;BME280;20156;47.486;12.074;2023-07-31T03:59:58;63601.63;;;-144.78;100.00
33859;BME280;20156;47.486;12.074;2023-07-31T04:02:23;63601.63;;;-144.78;100.00
33859;BME280;20156;47.486;12.074;2023-07-31T04:04:49;63601.63;;;-144.78;100.00
33859;BME280;20156;47.486;12.074;2023-07-31T04:07:14;63601.63;;;-144.78;100.00
33859;BME280;20156;47.486;12.074;2023-07-31T04:09:40;63601.63;;;-144.78;100.00
33859;BME280;20156;47.486;12.074;2023-07-31T04:12:05;63601.63;;;-144.78;100.00
33859;BME280;20156;47.486;12.074;2023-07-31T04:14:31;63601.63;;;-144.78;100.00
33859;BME280;20156;47.486;12.074;2023-07-31T04:16:56;63601.63;;;-144.78;100.00
33859;BME280;20156;47.486;12.074;2023-07-31T04:19:22;63601.63;;;-144.78;100.00
33859;BME280;20156;47.486;12.074;2023-07-31T04:21:47;63601.63;;;-144.78;100.00
33859;BME280;20156;47.486;12.074;2023-07-31T04:24:12;63601.63;;;-144.78;100.00
33859;BME280;20156;47.486;12.074;2023-07-31T04:26:38;63601.63;;;-144.78;100.00
33859;BME280;20156;47.486;12.074;2023-07-31T04:29:03;63601.63;;;-144.78;100.00
33859;BME280;20156;47.486;12.074;2023-07-31T04:31:29;63601.63;;;-144.78;100.00
33859;BME280;20156;47.486;12.074;2023-07-31T04:33:54;63601.63;;;-144.78;100.00
33859;BME280;20156;47.486;12.074;2023-07-31T04:36:20;63601.63;;;-144.78;100.00
33859;BME280;20156;47.486;12.074;2023-07-31T04:38:45;63601.63;;;-144.78;100.00
33859;BME280;20156;47.486;12.074;2023-07-31T04:41:10;63601.63;;;-144.78;100.00
33859;BME280;20156;47.486;12.074;2023-07-31T04:43:36;63601.63;;;-144.78;100.00
33859;BME280;20156;47.486;12.074;2023-07-31T04:46:04;63601.63;;;-144.78;100.00
33859;BME280;20156;47.486;12.074;2023-07-31T04:48:30;63601.63;;;-144.78;100.00
33859;BME280;20156;47.486;12.074;2023-07-31T04:50:55;63601.63;;;-144.78;100.00
33859;BME280;20156;47.486;12.074;2023-07-31T04:53:20;63601.63;;;-144.78;100.00
33859;BME280;20156;47.486;12.074;2023-07-31T04:55:46;63601.63;;;-144.78;100.00
33859;BME280;20156;47.486;12.074;2023-07-31T04:58:11;63601.63;;;-144.78;100.00
33859;BME280;20156;47.486;12.074;2023-07-31T05:00:37;63601.63;;;-144.78;100.00
33859;BME280;20156;47.486;12.074;2023-07-31T05:03:02;63601.63;;;-144.78;100.00
33859;BME280;20156;47.486;12.074;2023-07-31T05:05:28;63601.63;;;-144.78;100.00
33859;BME280;20156;47.486;12.074;2023-07-31T05:07:53;63601.63;;;-144.78;100.00
33859;BME280;20156;47.486;12.074;2023-07-31T05:10:18;63601.63;;;-144.78;100.00
33859;BME280;20156;47.486;12.074;2023-07-31T05:12:44;63601.63;;;-144.78;100.00
33859;BME280;20156;47.486;12.074;2023-07-31T05:15:09;63601.63;;;-144.78;100.00
33859;BME280;20156;47.486;12.074;2023-07-31T05:17:35;63601.63;;;-144.78;100.00
33859;BME280;20156;47.486;12.074;2023-07-31T05:20:00;63601.63;;;-144.78;100.00
33859;BME280;20156;47.486;12.074;2023-07-31T05:22:26;63601.63;;;-144.78;100.00
33859;BME280;20156;47.486;12.074;2023-07-31T05:24:51;63601.63;;;-144.78;100.00
33859;BME280;20156;47.486;12.074;2023-07-31T05:27:19;63601.63;;;-144.78;100.00
33859;BME280;20156;47.486;12.074;2023-07-31T05:29:44;63601.63;;;-144.78;100.00
33859;BME280;20156;47.486;12.074;2023-07-31T05:32:10;63601.63;;;-144.78;100.00
33859;BME280;20156;47.486;12.074;2023-07-31T05:34:35;63601.63;;;-144.78;100.00
33859;BME280;20156;47.486;12.074;2023-07-31T05:37:01;63601.63;;;-144.78;100.00
33859;BME280;20156;47.486;12.074;2023-07-31T05:39:26;63601.63;;;-144.78;100.00
33859;BME280;20156;47.486;12.074;2023-07-31T05:41:52;63601.63;;;-144.78;100.00
33859;BME280;20156;47.486;12.074;2023-07-31T05:44:17;63601.63;;;-144.78;100.00
33859;BME280;20156;47.486;12.074;2023-07-31T05:46:42;63601.63;;;-144.78;100.00
33859;BME280;20156;47.486;12.074;2023-07-31T05:49:08;63601.63;;;-144.78;100.00
33859;BME280;20156;47.486;12.074;2023-07-31T05:51:33;63601.63;;;-144.78;100.00
33859;BME280;20156;47.486;12.074;2023-07-31T05:53:59;63601.63;;;-144.78;100.00
33859;BME280;20156;47.486;12.074;2023-07-31T05:56:24;63601.63;;;-144.78;100.00
33859;BME280;20156;47.486;12.074;2023-07-31T05:58:49;63601.63;;;-144.78;100.00
33859;BME280;20156;47.486;12.074;2023-07-31T06:01:16;63601.63;;;-144.78;100.00
33859;BME280;20156;47.486;12.074;2023-07-31T06:03:42;63601.63;;;-144.78;100.00
33859;BME280;20156;47.486;12.074;2023-07-31T06:06:07;63601.63;;;-144.78;100.00
33859;BME280;20156;47.486;12.074;2023-07-31T06:08:33;63601.63;;;-144.78;100.00
33859;BME280;20156;47.486;12.074;2023-07-31T06:10:58;63601.63;;;-144.78;100.00
33859;BME280;20156;47.486;12.074;2023-07-31T06:13:24;63601.63;;;-144.78;100.00
33859;BME280;20156;47.486;12.074;2023-07-31T06:15:49;63601.63;;;-144.78;100.00
33859;BME280;20156;47.486;12.074;2023-07-31T06:18:16;63601.63;;;-144.78;100.00
33859;BME280;20156;47.486;12.074;2023-07-31T06:20:41;63601.63;;;-144.78;100.00
33859;BME280;20156;47.486;12.074;2023-07-31T06:23:07;63601.63;;;-144.78;100.00
33859;BME280;20156;47.486;12.074;2023-07-31T06:25:33;63601.63;;;-144.78;100.00
33859;BME280;20156;47.486;12.074;2023-07-31T06:27:58;63601.63;;;-144.78;100.00
33859;BME280;20156;47.486;12.074;2023-07-31T06:30:23;63601.63;;;-144.78;100.00
33859;BME280;20156;47.486;12.074;2023-07-31T06:32:49;63601.63;;;-144.78;100.00
33859;BME280;20156;47.486;12.074;2023-07-31T06:35:14;63601.63;;;-144.78;100.00
33859;BME280;20156;47.486;12.074;2023-07-31T06:37:40;63601.63;;;-144.78;100.00
33859;BME280;20156;47.486;12.074;2023-07-31T06:40:08;63601.63;;;-144.78;100.00
33859;BME280;20156;47.486;12.074;2023-07-31T06:42:34;63601.63;;;-144.78;100.00
33859;BME280;20156;47.486;12.074;2023-07-31T06:45:01;63601.63;;;-144.78;100.00
33859;BME280;20156;47.486;12.074;2023-07-31T06:47:26;63601.63;;;-144.78;100.00
33859;BME280;20156;47.486;12.074;2023-07-31T06:49:51;63601.63;;;-144.78;100.00
33859;BME280;20156;47.486;12.074;2023-07-31T06:52:17;63601.63;;;-144.78;100.00
33859;BME280;20156;47.486;12.074;2023-07-31T06:54:42;63601.63;;;-144.78;100.00
33859;BME280;20156;47.486;12.074;2023-07-31T06:57:08;63601.63;;;-144.78;100.00
33859;BME280;20156;47.486;12.074;2023-07-31T06:59:33;63601.63;;;-144.78;100.00
33859;BME280;20156;47.486;12.074;2023-07-31T07:01:59;63601.63;;;-144.78;100.00
33859;BME280;20156;47.486;12.074;2023-07-31T07:04:24;63601.63;;;-144.78;100.00
33859;BME280;20156;47.486;12.074;2023-07-31T07:06:50;63601.63;;;-144.78;100.00
33859;BME280;20156;47.486;12.074;2023-07-31T07:09:15;63601.63;;;-144.78;100.00
33859;BME280;20156;47.486;12.074;2023-07-31T07:11:40;63601.63;;;-144.78;100.00
33859;BME280;20156;47.486;12.074;2023-07-31T07:14:06;63601.63;;;-144.78;100.00
33859;BME280;20156;47.486;12.074;2023-07-31T07:16:31;63601.63;;;-144.78;100.00
33859;BME280;20156;47.486;12.074;2023-07-31T07:18:57;63601.63;;;-144.78;100.00
33859;BME280;20156;47.486;12.074;2023-07-31T07:21:22;63601.63;;;-144.78;100.00
33859;BME280;20156;47.486;12.074;2023-07-31T07:23:48;63601.63;;;-144.78;100.00
33859;BME280;20156;47.486;12.074;2023-07-31T07:26:13;63601.63;;;-144.78;100.00
33859;BME280;20156;47.486;12.074;2023-07-31T07:28:39;63601.63;;;-144.78;100.00
33859;BME280;20156;47.486;12.074;2023-07-31T07:31:04;63601.63;;;-144.78;100.00
33859;BME280;20156;47.486;12.074;2023-07-31T07:33:30;63601.63;;;-144.78;100.00
33859;BME280;20156;47.486;12.074;2023-07-31T07:36:00;63601.63;;;-144.78;100.00
33859;BME280;20156;47.486;12.074;2023-07-31T07:38:25;63601.63;;;-144.78;100.00
33859;BME280;20156;47.486;12.074;2023-07-31T07:40:51;63601.63;;;-144.78;100.00
33859;BME280;20156;47.486;12.074;2023-07-31T07:43:18;63601.63;;;-144.78;100.00
33859;BME280;20156;47.486;12.074;2023-07-31T07:45:43;63601.63;;;-144.78;100.00
33859;BME280;20156;47.486;12.074;2023-07-31T07:48:09;63601.63;;;-144.78;100.00
33859;BME280;20156;47.486;12.074;2023-07-31T07:50:34;63601.63;;;-144.78;100.00
33859;BME280;20156;47.486;12.074;2023-07-31T07:52:59;63601.63;;;-144.78;100.00
33859;BME280;20156;47.486;12.074;2023-07-31T07:55:25;63601.63;;;-144.78;100.00
33859;BME280;20156;47.486;12.074;2023-07-31T07:57:50;-12125.75;;;-144.78;100.00
33859;BME280;20156;47.486;12.074;2023-07-31T08:00:16;63601.63;;;-144.78;100.00
33859;BME280;20156;47.486;12.074;2023-07-31T08:02:43;63601.63;;;-144.78;100.00
33859;BME280;20156;47.486;12.074;2023-07-31T08:05:08;63601.63;;;-144.78;100.00
33859;BME280;20156;47.486;12.074;2023-07-31T08:07:34;63601.63;;;-144.78;100.00
33859;BME280;20156;47.486;12.074;2023-07-31T08:09:59;63601.63;;;-144.78;100.00
33859;BME280;20156;47.486;12.074;2023-07-31T08:12:25;63601.63;;;-144.78;100.00
33859;BME280;20156;47.486;12.074;2023-07-31T08:14:50;63601.63;;;-144.78;100.00
33859;BME280;20156;47.486;12.074;2023-07-31T08:17:16;63601.63;;;-144.78;100.00
33859;BME280;20156;47.486;12.074;2023-07-31T08:19:42;63601.63;;;-144.78;100.00
33859;BME280;20156;47.486;12.074;2023-07-31T08:22:07;63601.63;;;-144.78;100.00
33859;BME280;20156;47.486;12.074;2023-07-31T08:24:32;63601.63;;;-144.78;0.00
33859;BME280;20156;47.486;12.074;2023-07-31T08:26:58;63601.63;;;-144.78;100.00
33859;BME280;20156;47.486;12.074;2023-07-31T08:29:24;93736.72;;;-144.78;100.00
33859;BME280;20156;47.486;12.074;2023-07-31T08:31:50;93736.72;;;-97.99;100.00
33859;BME280;20156;47.486;12.074;2023-07-31T08:34:15;93736.72;;;18.73;100.00
33859;BME280;20156;47.486;12.074;2023-07-31T08:36:41;93736.72;;;18.73;100.00
33859;BME280;20156;47.486;12.074;2023-07-31T08:39:06;93736.72;;;18.73;100.00
33859;BME280;20156;47.486;12.074;2023-07-31T08:41:37;95043.84;;;22.04;100.00
33859;BME280;20156;47.486;12.074;2023-07-31T08:44:03;94988.91;;;22.14;100.00
33859;BME280;20156;47.486;12.074;2023-07-31T08:46:29;94956.66;;;21.78;100.00
33859;BME280;20156;47.486;12.074;2023-07-31T08:48:55;94956.66;;;21.78;100.00
33859;BME280;20156;47.486;12.074;2023-07-31T08:51:20;94960.72;;;21.66;100.00
33859;BME280;20156;47.486;12.074;2023-07-31T08:53:45;94960.72;;;21.66;100.00
33859;BME280;20156;47.486;12.074;2023-07-31T08:56:11;94960.72;;;21.66;100.00
33859;BME280;20156;47.486;12.074;2023-07-31T08:58:39;94946.19;;;21.34;100.00
33859;BME280;20156;47.486;12.074;2023-07-31T09:01:07;94969.25;;;22.20;100.00
33859;BME280;20156;47.486;12.074;2023-07-31T09:03:33;94968.03;;;22.56;100.00
33859;BME280;20156;47.486;12.074;2023-07-31T09:06:01;95047.56;;;22.32;100.00
33859;BME280;20156;47.486;12.074;2023-07-31T09:08:30;95019.44;;;22.60;100.00
33859;BME280;20156;47.486;12.074;2023-07-31T09:11:00;95062.47;;;22.75;100.00
33859;BME280;20156;47.486;12.074;2023-07-31T09:13:29;95119.22;;;22.50;100.00
33859;BME280;20156;47.486;12.074;2023-07-31T09:15:55;95087.06;;;22.86;100.00
33859;BME280;20156;47.486;12.074;2023-07-31T09:18:20;95032.38;;;23.09;100.00
33859;BME280;20156;47.486;12.074;2023-07-31T09:21:03;95064.03;;;23.24;100.00
33859;BME280;20156;47.486;12.074;2023-07-31T09:23:43;95094.78;;;22.59;100.00
33859;BME280;20156;47.486;12.074;2023-07-31T09:26:09;95037.88;;;23.13;100.00
33859;BME280;20156;47.486;12.074;2023-07-31T09:28:36;95086.06;;;23.01;100.00
33859;BME280;20156;47.486;12.074;2023-07-31T09:31:01;95102.00;;;22.77;100.00
33859;BME280;20156;47.486;12.074;2023-07-31T09:33:26;95051.75;;;23.28;100.00
33859;BME280;20156;47.486;12.074;2023-07-31T09:35:52;95041.78;;;23.58;100.00
33859;BME280;20156;47.486;12.074;2023-07-31T09:38:17;95091.59;;;24.17;100.00
33859;BME280;20156;47.486;12.074;2023-07-31T09:40:46;95061.16;;;23.77;100.00
33859;BME280;20156;47.486;12.074;2023-07-31T09:43:17;95030.22;;;24.14;100.00
33859;BME280;20156;47.486;12.074;2023-07-31T09:45:44;95008.53;;;23.93;100.00
33859;BME280;20156;47.486;12.074;2023-07-31T09:48:12;95011.59;;;24.00;100.00
33859;BME280;20156;47.486;12.074;2023-07-31T09:50:39;94979.41;;;23.88;100.00
33859;BME280;20156;47.486;12.074;2023-07-31T09:53:05;95034.28;;;23.79;100.00
33859;BME280;20156;47.486;12.074;2023-07-31T09:55:31;95051.16;;;23.50;100.00
33859;BME280;20156;47.486;12.074;2023-07-31T09:57:57;95028.63;;;23.66;100.00
33859;BME280;20156;47.486;12.074;2023-07-31T10:00:24;95061.81;;;23.69;100.00
33859;BME280;20156;47.486;12.074;2023-07-31T10:02:54;95054.28;;;23.57;100.00
33859;BME280;20156;47.486;12.074;2023-07-31T10:05:21;95052.84;;;23.65;100.00
33859;BME280;20156;47.486;12.074;2023-07-31T10:07:53;95014.16;;;23.91;100.00
33859;BME280;20156;47.486;12.074;2023-07-31T10:10:20;95007.03;;;24.33;100.00
33859;BME280;20156;47.486;12.074;2023-07-31T10:12:48;94992.06;;;24.51;100.00
33859;BME280;20156;47.486;12.074;2023-07-31T10:15:15;95006.75;;;24.48;100.00
33859;BME280;20156;47.486;12.074;2023-07-31T10:17:40;95004.13;;;24.16;100.00
33859;BME280;20156;47.486;12.074;2023-07-31T10:20:07;95023.25;;;24.04;100.00
33859;BME280;20156;47.486;12.074;2023-07-31T10:22:34;95014.66;;;23.93;100.00
33859;BME280;20156;47.486;12.074;2023-07-31T10:25:00;95008.25;;;24.41;100.00
33859;BME280;20156;47.486;12.074;2023-07-31T10:27:25;94991.50;;;24.54;100.00
33859;BME280;20156;47.486;12.074;2023-07-31T10:29:53;94977.81;;;25.10;100.00
33859;BME280;20156;47.486;12.074;2023-07-31T10:32:20;94968.56;;;25.30;100.00
33859;BME280;20156;47.486;12.074;2023-07-31T10:34:46;94946.09;;;25.45;100.00
33859;BME280;20156;47.486;12.074;2023-07-31T10:40:04;94924.50;;;25.24;100.00
33859;BME280;20156;47.486;12.074;2023-07-31T10:42:38;94948.31;;;24.71;100.00
33859;BME280;20156;47.486;12.074;2023-07-31T10:45:10;94921.16;;;24.82;100.00
33859;BME280;20156;47.486;12.074;2023-07-31T10:47:43;94896.72;;;24.80;100.00
33859;BME280;20156;47.486;12.074;2023-07-31T10:50:19;94873.22;;;24.60;100.00
33859;BME280;20156;47.486;12.074;2023-07-31T10:52:55;94865.53;;;24.58;100.00
33859;BME280;20156;47.486;12.074;2023-07-31T10:55:32;94838.09;;;24.94;100.00
33859;BME280;20156;47.486;12.074;2023-07-31T11:00:33;94810.44;;;25.66;100.00
33859;BME280;20156;47.486;12.074;2023-07-31T11:03:04;94789.34;;;25.38;100.00
33859;BME280;20156;47.486;12.074;2023-07-31T11:05:49;94762.53;;;25.74;100.00
33859;BME280;20156;47.486;12.074;2023-07-31T11:08:26;94680.59;;;25.01;100.00
33859;BME280;20156;47.486;12.074;2023-07-31T11:11:06;94607.81;;;25.14;100.00
33859;BME280;20156;47.486;12.074;2023-07-31T11:13:44;94499.91;;;25.34;100.00
33859;BME280;20156;47.486;12.074;2023-07-31T11:16:12;94435.78;;;24.61;100.00
33859;BME280;20156;47.486;12.074;2023-07-31T11:18:40;94435.78;;;-144.78;100.00
33859;BME280;20156;47.486;12.074;2023-07-31T11:21:07;94435.78;;;24.61;100.00
33859;BME280;20156;47.486;12.074;2023-07-31T11:23:32;94435.78;;;-144.78;100.00
33859;BME280;20156;47.486;12.074;2023-07-31T11:26:01;94252.56;;;25.24;100.00
33859;BME280;20156;47.486;12.074;2023-07-31T11:28:32;94207.66;;;24.96;100.00
33859;BME280;20156;47.486;12.074;2023-07-31T11:30:59;94188.19;;;25.13;100.00
33859;BME280;20156;47.486;12.074;2023-07-31T11:33:24;94128.91;;;25.04;100.00
33859;BME280;20156;47.486;12.074;2023-07-31T11:35:50;94020.97;;;26.02;100.00
33859;BME280;20156;47.486;12.074;2023-07-31T11:38:28;93778.00;;;25.55;100.00
33859;BME280;20156;47.486;12.074;2023-07-31T11:40:55;93734.81;;;25.86;100.00
33859;BME280;20156;47.486;12.074;2023-07-31T11:43:21;93756.22;;;25.53;100.00
33859;BME280;20156;47.486;12.074;2023-07-31T11:45:52;93751.38;;;25.79;100.00
33859;BME280;20156;47.486;12.074;2023-07-31T11:48:20;93749.78;;;25.17;100.00
33859;BME280;20156;47.486;12.074;2023-07-31T11:50:46;93746.97;;;25.01;100.00
33859;BME280;20156;47.486;12.074;2023-07-31T11:53:12;93772.47;;;25.02;100.00
33859;BME280;20156;47.486;12.074;2023-07-31T11:55:38;93783.84;;;25.36;100.00
33859;BME280;20156;47.486;12.074;2023-07-31T11:58:04;93754.19;;;25.70;100.00
33859;BME280;20156;47.486;12.074;2023-07-31T12:00:30;93697.78;;;26.64;100.00
33859;BME280;20156;47.486;12.074;2023-07-31T12:02:56;93766.19;;;26.85;100.00
33859;BME280;20156;47.486;12.074;2023-07-31T12:05:22;93764.03;;;25.82;100.00
33859;BME280;20156;47.486;12.074;2023-07-31T12:07:50;93761.00;;;25.35;100.00
33859;BME280;20156;47.486;12.074;2023-07-31T12:10:27;93727.63;;;25.37;100.00
33859;BME280;20156;47.486;12.074;2023-07-31T12:13:05;93686.00;;;25.45;100.00
33859;BME280;20156;47.486;12.074;2023-07-31T12:15:42;93688.47;;;24.80;100.00
33859;BME280;20156;47.486;12.074;2023-07-31T12:18:10;93684.19;;;25.00;100.00
33859;BME280;20156;47.486;12.074;2023-07-31T12:20:40;93672.44;;;25.01;100.00
33859;BME280;20156;47.486;12.074;2023-07-31T12:23:07;93662.81;;;25.09;100.00
33859;BME280;20156;47.486;12.074;2023-07-31T12:25:33;93682.56;;;24.63;100.00
33859;BME280;20156;47.486;12.074;2023-07-31T12:28:05;93669.59;;;25.06;100.00
33859;BME280;20156;47.486;12.074;2023-07-31T12:30:34;93678.78;;;25.45;100.00
33859;BME280;20156;47.486;12.074;2023-07-31T12:33:32;93676.66;;;25.51;100.00
33859;BME280;20156;47.486;12.074;2023-07-31T12:36:01;93691.31;;;26.22;100.00